createdAt,value
2023-11-21T00:02:06.436Z,97420.94
2023-11-21T00:04:55.305Z,97421.78
2023-11-21T00:07:44.295Z,97422.78
2023-11-21T00:10:33.166Z,97430.84
2023-11-21T00:13:21.919Z,97430.84
2023-11-21T00:16:10.837Z,97438.06
2023-11-21T00:19:00.916Z,97436.22
2023-11-21T00:21:49.673Z,97430.84
2023-11-21T00:24:38.434Z,97441.59
2023-11-21T00:27:27.211Z,97441.59
2023-11-21T00:30:17.167Z,97445.09
2023-11-21T00:33:06.630Z,97442.41
2023-11-21T00:35:56.854Z,97440.56
2023-11-21T00:38:45.601Z,97438.91
2023-11-21T00:41:34.530Z,97454.00
2023-11-21T00:44:23.347Z,97440.75
2023-11-21T00:47:12.389Z,97443.44
2023-11-21T00:50:01.263Z,97443.44
2023-11-21T00:52:52.848Z,97435.38
2023-11-21T00:55:41.953Z,97446.13
2023-11-21T00:58:31.533Z,97441.78
2023-11-21T01:01:20.706Z,97440.75
2023-11-21T01:04:09.450Z,97428.38
2023-11-21T01:06:58.192Z,97429.19
2023-11-21T01:09:48.406Z,97437.25
2023-11-21T01:12:37.727Z,97432.91
2023-11-21T01:15:27.293Z,97439.13
2023-11-21T01:18:16.012Z,97428.38
2023-11-21T01:21:04.952Z,97423.00
2023-11-21T01:23:53.619Z,97428.38
2023-11-21T01:26:43.838Z,97423.84
2023-11-21T01:29:32.518Z,97426.69
2023-11-21T01:32:21.491Z,97430.25
2023-11-21T01:35:11.412Z,97433.75
2023-11-21T01:38:00.089Z,97437.44
2023-11-21T01:40:48.972Z,97450.03
2023-11-21T01:43:39.175Z,97450.03
2023-11-21T01:46:28.069Z,97449.84
2023-11-21T01:49:16.837Z,97459.75
2023-11-21T01:52:06.716Z,97450.84
2023-11-21T01:54:55.693Z,97455.41
2023-11-21T01:57:44.380Z,97457.09
2023-11-21T02:00:34.600Z,97458.91
2023-11-21T02:03:23.440Z,97458.91
2023-11-21T02:06:12.154Z,97460.78
2023-11-21T02:09:01.977Z,97460.78
2023-11-21T02:11:50.741Z,97461.59
2023-11-21T02:14:39.726Z,97457.25
2023-11-21T02:17:29.877Z,97464.28
2023-11-21T02:20:19.008Z,97462.63
2023-11-21T02:23:09.204Z,97455.41
2023-11-21T02:25:58.036Z,97459.94
2023-11-21T02:28:46.792Z,97456.22
2023-11-21T02:31:35.685Z,97462.63
2023-11-21T02:34:26.285Z,97449.22
2023-11-21T02:37:15.501Z,97462.44
2023-11-21T02:40:07.835Z,97462.63
2023-11-21T02:42:56.633Z,97462.63
2023-11-21T02:45:45.464Z,97459.94
2023-11-21T02:48:34.209Z,97462.63
2023-11-21T02:51:22.922Z,97459.94
2023-11-21T02:54:12.257Z,97462.63
2023-11-21T02:57:02.364Z,97459.13
2023-11-21T02:59:51.341Z,97468.00
2023-11-21T03:02:41.255Z,97466.34
2023-11-21T03:05:30.762Z,97474.41
2023-11-21T03:08:19.580Z,97481.41
2023-11-21T03:11:09.347Z,97469.84
2023-11-21T03:13:59.448Z,97477.09
2023-11-21T03:16:48.120Z,97471.72
2023-11-21T03:19:36.865Z,97477.09
2023-11-21T03:22:25.681Z,97475.22
2023-11-21T03:25:15.296Z,97478.75
2023-11-21T03:28:04.570Z,97477.09
2023-11-21T03:30:54.606Z,97481.59
2023-11-21T03:33:43.408Z,97493.19
2023-11-21T03:36:32.056Z,97493.19
2023-11-21T03:39:21.643Z,97501.25
2023-11-21T03:42:10.393Z,97493.19
2023-11-21T03:44:59.121Z,97499.56
2023-11-21T03:47:49.196Z,97496.06
2023-11-21T03:50:38.010Z,97488.84
2023-11-21T03:53:26.807Z,97498.56
2023-11-21T03:56:16.521Z,97492.34
2023-11-21T03:59:05.328Z,97495.03
2023-11-21T04:01:54.029Z,97501.44
2023-11-21T04:04:44.457Z,97486.97
2023-11-21T04:07:33.285Z,97491.53
2023-11-21T04:10:23.071Z,97500.41
2023-11-21T04:13:11.827Z,97502.25
2023-11-21T04:16:00.619Z,97507.63
2023-11-21T04:18:49.310Z,97507.63
2023-11-21T04:21:39.366Z,97507.63
2023-11-21T04:24:28.220Z,97507.63
2023-11-21T04:27:19.207Z,97510.31
2023-11-21T04:30:11.153Z,97511.34
2023-11-21T04:33:00.005Z,97514.03
2023-11-21T04:35:49.067Z,97512.16
2023-11-21T04:38:39.190Z,97503.28
2023-11-21T04:41:27.881Z,97510.31
2023-11-21T04:44:17.736Z,97505.97
2023-11-21T04:47:07.227Z,97514.84
2023-11-21T04:49:56.496Z,97514.84
2023-11-21T04:52:45.190Z,97519.41
2023-11-21T04:55:35.334Z,97521.03
2023-11-21T04:58:24.220Z,97517.53
2023-11-21T05:01:13.185Z,97523.72
2023-11-21T05:04:02.029Z,97519.41
2023-11-21T05:06:51.040Z,97522.09
2023-11-21T05:09:45.092Z,97525.59
2023-11-21T05:12:36.214Z,97528.28
2023-11-21T05:15:26.139Z,97532.81
2023-11-21T05:18:15.514Z,97530.97
2023-11-21T05:21:04.762Z,97537.16
2023-11-21T05:23:53.705Z,97528.28
2023-11-21T05:26:42.364Z,97533.66
2023-11-21T05:29:32.453Z,97537.38
2023-11-21T05:32:21.145Z,97546.41
2023-11-21T05:35:13.296Z,97550.78
2023-11-21T05:38:02.036Z,97547.25
2023-11-21T05:40:51.209Z,97550.78
2023-11-21T05:43:40.030Z,97544.56
2023-11-21T05:46:30.285Z,97553.47
2023-11-21T05:49:23.097Z,97557.97
2023-11-21T05:52:11.874Z,97557.97
2023-11-21T05:55:00.743Z,97561.69
2023-11-21T05:57:49.480Z,97565.22
2023-11-21T06:00:38.709Z,97566.88
2023-11-21T06:03:28.902Z,97571.41
2023-11-21T06:06:17.746Z,97568.72
2023-11-21T06:09:07.018Z,97573.25
2023-11-21T06:11:55.716Z,97580.31
2023-11-21T06:14:44.435Z,97579.47
2023-11-21T06:17:33.290Z,97578.63
2023-11-21T06:20:24.457Z,97590.19
2023-11-21T06:23:13.271Z,97597.25
2023-11-21T06:26:02.266Z,97607.59
2023-11-21T06:28:52.596Z,97598.50
2023-11-21T06:31:42.024Z,97602.22
2023-11-21T06:34:31.498Z,97612.97
2023-11-21T06:37:22.379Z,97598.50
2023-11-21T06:40:11.649Z,97607.41
2023-11-21T06:43:01.533Z,97603.88
2023-11-21T06:45:50.347Z,97605.75
2023-11-21T06:48:39.681Z,97599.16
2023-11-21T06:51:28.651Z,97605.34
2023-11-21T06:54:18.698Z,97610.94
2023-11-21T06:57:07.464Z,97617.94
2023-11-21T06:59:57.056Z,97610.94
2023-11-21T07:02:46.202Z,97601.19
2023-11-21T07:05:35.079Z,97604.91
2023-11-21T07:08:23.819Z,97609.25
2023-11-21T07:11:13.930Z,97604.91
2023-11-21T07:14:06.707Z,97614.00
2023-11-21T07:16:55.434Z,97622.88
2023-11-21T07:19:44.145Z,97623.69
2023-11-21T07:22:32.982Z,97624.75
2023-11-21T07:25:23.412Z,97628.25
2023-11-21T07:28:13.593Z,97624.75
2023-11-21T07:31:02.422Z,97628.03
2023-11-21T07:33:51.196Z,97624.97
2023-11-21T07:36:40.016Z,97624.53
2023-11-21T07:39:28.672Z,97627.44
2023-11-21T07:42:17.934Z,97623.88
2023-11-21T07:45:09.959Z,97627.44
2023-11-21T07:47:58.825Z,97632.78
2023-11-21T07:50:49.147Z,97630.72
2023-11-21T07:53:37.953Z,97628.44
2023-11-21T07:56:26.733Z,97639.38
2023-11-21T07:59:15.458Z,97630.28
2023-11-21T08:02:05.944Z,97632.16
2023-11-21T08:04:54.726Z,97634.81
2023-11-21T08:07:43.688Z,97633.16
2023-11-21T08:10:32.507Z,97630.47
2023-11-21T08:13:21.292Z,97644.75
2023-11-21T08:16:10.764Z,97648.03
2023-11-21T08:19:01.066Z,97646.22
2023-11-21T08:21:49.874Z,97646.84
2023-11-21T08:24:38.587Z,97644.75
2023-11-21T08:27:27.461Z,97657.78
2023-11-21T08:30:18.162Z,97651.59
2023-11-21T08:33:06.955Z,97655.28
2023-11-21T08:35:57.093Z,97655.09
2023-11-21T08:38:46.056Z,97663.78
2023-11-21T08:41:34.973Z,97662.94
2023-11-21T08:44:24.278Z,97668.31
2023-11-21T08:47:13.151Z,97662.94
2023-11-21T08:50:01.868Z,97673.69
2023-11-21T08:52:52.537Z,97680.72
2023-11-21T08:55:41.558Z,97682.59
2023-11-21T08:58:30.460Z,97679.06
2023-11-21T09:01:19.588Z,97684.41
2023-11-21T09:04:09.445Z,97678.03
2023-11-21T09:06:58.137Z,97677.56
2023-11-21T09:09:48.836Z,97680.91
2023-11-21T09:12:38.516Z,97678.03
2023-11-21T09:15:27.388Z,97682.38
2023-11-21T09:18:16.592Z,97679.53
2023-11-21T09:21:06.288Z,97680.34
2023-11-21T09:23:55.422Z,97675.97
2023-11-21T09:26:46.688Z,97674.16
2023-11-21T09:29:35.446Z,97664.41
2023-11-21T09:32:24.151Z,97677.84
2023-11-21T09:35:13.051Z,97671.66
2023-11-21T09:38:03.059Z,97669.59
2023-11-21T09:40:54.112Z,97677.47
2023-11-21T09:43:46.153Z,97673.13
2023-11-21T09:46:35.006Z,97671.47
2023-11-21T09:49:26.586Z,97666.91
2023-11-21T09:52:17.255Z,97670.63
2023-11-21T09:55:07.067Z,97666.28
2023-11-21T09:57:56.150Z,97665.44
2023-11-21T10:00:47.252Z,97665.44
2023-11-21T10:03:39.474Z,97670.63
2023-11-21T10:06:28.692Z,97673.13
2023-11-21T10:09:17.531Z,97667.56
2023-11-21T10:12:07.889Z,97673.78
2023-11-21T10:14:57.204Z,97669.22
2023-11-21T10:17:47.366Z,97672.94
2023-11-21T10:20:36.256Z,97669.78
2023-11-21T10:23:25.229Z,97668.31
2023-11-21T10:26:28.917Z,97672.47
2023-11-21T10:29:20.489Z,97671.25
2023-11-21T10:32:09.505Z,97671.25
2023-11-21T10:35:07.649Z,97668.97
2023-11-21T10:38:02.890Z,97664.25
2023-11-21T10:40:51.984Z,97667.75
2023-11-21T10:43:41.263Z,97669.59
2023-11-21T10:46:31.855Z,97680.34
2023-11-21T10:49:21.517Z,97680.34
2023-11-21T10:52:18.761Z,97679.13
2023-11-21T10:55:22.627Z,97689.06
2023-11-21T10:58:12.354Z,97680.34
2023-11-21T11:01:01.183Z,97680.34
2023-11-21T11:03:50.635Z,97680.72
2023-11-21T11:06:40.307Z,97674.31
2023-11-21T11:09:30.382Z,97682.66
2023-11-21T11:12:20.507Z,97679.13
2023-11-21T11:15:11.307Z,97679.97
2023-11-21T11:18:00.229Z,97672.09
2023-11-21T11:20:49.149Z,97671.25
2023-11-21T11:23:56.627Z,97671.25
2023-11-21T11:26:50.048Z,97670.06
2023-11-21T11:29:43.456Z,97671.25
2023-11-21T11:32:43.020Z,97671.25
2023-11-21T11:35:36.692Z,97678.31
2023-11-21T11:38:25.399Z,97680.13
2023-11-21T11:41:14.360Z,97679.13
2023-11-21T11:44:05.488Z,97681.81
2023-11-21T11:46:55.089Z,97681.00
2023-11-21T11:50:05.293Z,97672.72
2023-11-21T11:52:56.290Z,97678.09
2023-11-21T11:55:45.124Z,97687.63
2023-11-21T11:58:40.229Z,97683.09
2023-11-21T12:01:30.696Z,97687.00
2023-11-21T12:04:36.766Z,97689.66
2023-11-21T12:07:25.924Z,97688.66
2023-11-21T12:10:19.060Z,97690.69
2023-11-21T12:13:09.841Z,97690.88
2023-11-21T12:15:58.638Z,97687.38
2023-11-21T12:18:48.780Z,97684.88
2023-11-21T12:21:38.522Z,97683.03
2023-11-21T12:24:30.124Z,97683.03
2023-11-21T12:27:19.515Z,97680.34
2023-11-21T12:30:14.640Z,97684.88
2023-11-21T12:33:04.125Z,97684.03
2023-11-21T12:35:54.991Z,97686.94
2023-11-21T12:38:44.067Z,97692.28
2023-11-21T12:41:32.866Z,97696.47
2023-11-21T12:44:25.147Z,97697.66
2023-11-21T12:47:16.141Z,97698.50
2023-11-21T12:50:15.339Z,97690.44
2023-11-21T12:53:07.199Z,97693.13
2023-11-21T12:55:59.571Z,97698.50
2023-11-21T12:58:49.267Z,97697.66
2023-11-21T13:01:38.961Z,97702.22
2023-11-21T13:04:33.824Z,97708.41
2023-11-21T13:07:23.809Z,97708.41
2023-11-21T13:10:13.957Z,97710.25
2023-11-21T13:13:06.303Z,97714.81
2023-11-21T13:15:57.349Z,97714.81
2023-11-21T13:18:46.371Z,97714.81
2023-11-21T13:21:36.353Z,97713.94
2023-11-21T13:24:25.256Z,97713.94
2023-11-21T13:27:16.578Z,97715.63
2023-11-21T13:30:09.699Z,97718.69
2023-11-21T13:33:03.132Z,97719.31
2023-11-21T13:35:53.184Z,97717.50
2023-11-21T13:38:44.556Z,97710.88
2023-11-21T13:41:33.339Z,97720.63
2023-11-21T13:44:30.651Z,97723.31
2023-11-21T13:47:19.369Z,97724.13
2023-11-21T13:50:18.291Z,97726.00
2023-11-21T13:53:17.276Z,97723.47
2023-11-21T13:56:07.471Z,97729.69
2023-11-21T13:58:56.998Z,97732.38
2023-11-21T14:01:57.611Z,97735.69
2023-11-21T14:04:56.301Z,97726.16
2023-11-21T14:07:49.166Z,97727.00
2023-11-21T14:10:44.041Z,97731.38
2023-11-21T14:13:32.890Z,97732.38
2023-11-21T14:16:23.024Z,97735.91
2023-11-21T14:19:17.226Z,97731.38
2023-11-21T14:22:06.669Z,97731.38
2023-11-21T14:24:59.957Z,97728.69
2023-11-21T14:27:48.855Z,97732.00
2023-11-21T14:30:37.636Z,97739.41
2023-11-21T14:33:26.393Z,97736.06
2023-11-21T14:36:18.498Z,97745.16
2023-11-21T14:39:10.442Z,97739.78
2023-11-21T14:42:00.748Z,97737.13
2023-11-21T14:44:49.483Z,97753.22
2023-11-21T14:47:39.796Z,97748.03
2023-11-21T14:50:45.137Z,97753.00
2023-11-21T14:53:52.404Z,97753.66
2023-11-21T14:56:40.505Z,97757.19
2023-11-21T14:59:29.245Z,97757.19
2023-11-21T15:02:18.456Z,97762.53
2023-11-21T15:05:09.882Z,97762.94
2023-11-21T15:07:58.250Z,97760.25
2023-11-21T15:10:50.853Z,97758.59
2023-11-21T15:13:39.963Z,97760.44
2023-11-21T15:16:28.748Z,97769.31
2023-11-21T15:19:19.739Z,97771.19
2023-11-21T15:22:08.793Z,97764.97
2023-11-21T15:24:58.982Z,97774.69
2023-11-21T15:27:51.270Z,97768.50
2023-11-21T15:30:40.105Z,97773.88
2023-11-21T15:33:29.170Z,97772.00
2023-11-21T15:36:18.083Z,97773.88
2023-11-21T15:39:08.822Z,97779.41
2023-11-21T15:41:57.535Z,97776.72
2023-11-21T15:44:47.696Z,97782.94
2023-11-21T15:47:36.986Z,97787.47
2023-11-21T15:50:25.935Z,97791.81
2023-11-21T15:53:14.950Z,97782.94
2023-11-21T15:56:05.341Z,97790.97
2023-11-21T15:58:54.267Z,97790.97
2023-11-21T16:01:47.077Z,97795.53
2023-11-21T16:04:38.053Z,97808.94
2023-11-21T16:07:26.779Z,97800.91
2023-11-21T16:10:16.384Z,97811.63
2023-11-21T16:13:05.331Z,97816.34
2023-11-21T16:15:55.424Z,97820.72
2023-11-21T16:18:45.518Z,97823.84
2023-11-21T16:21:34.240Z,97833.56
2023-11-21T16:24:24.205Z,97830.06
2023-11-21T16:27:12.965Z,97830.50
2023-11-21T16:30:01.811Z,97840.13
2023-11-21T16:32:50.805Z,97837.06
2023-11-21T16:35:42.935Z,97847.00
2023-11-21T16:38:31.709Z,97847.81
2023-11-21T16:41:20.582Z,97844.13
2023-11-21T16:44:16.040Z,97846.81
2023-11-21T16:47:06.985Z,97851.34
2023-11-21T16:49:56.190Z,97852.19
2023-11-21T16:52:46.825Z,97862.94
2023-11-21T16:55:35.971Z,97868.28
2023-11-21T16:58:24.755Z,97869.28
2023-11-21T17:01:14.054Z,97884.41
2023-11-21T17:04:03.813Z,97884.41
2023-11-21T17:06:52.901Z,97885.22
2023-11-21T17:09:47.603Z,97887.09
2023-11-21T17:12:36.417Z,97886.06
2023-11-21T17:15:25.617Z,97890.59
2023-11-21T17:18:14.420Z,97903.19
2023-11-21T17:21:03.616Z,97913.94
2023-11-21T17:23:53.090Z,97911.06
2023-11-21T17:26:45.037Z,97914.59
2023-11-21T17:29:33.732Z,97922.81
2023-11-21T17:32:22.855Z,97922.00
2023-11-21T17:35:12.596Z,97927.16
2023-11-21T17:38:02.591Z,97930.72
2023-11-21T17:40:51.501Z,97930.72
2023-11-21T17:43:43.033Z,97932.38
2023-11-21T17:46:32.395Z,97932.38
2023-11-21T17:49:21.264Z,97940.41
2023-11-21T17:52:10.138Z,97946.44
2023-11-21T17:54:58.957Z,97953.66
2023-11-21T17:57:47.729Z,97965.25
2023-11-21T18:00:37.966Z,97962.56
2023-11-21T18:03:27.056Z,97965.41
2023-11-21T18:06:16.029Z,97963.56
2023-11-21T18:09:05.624Z,97970.78
2023-11-21T18:11:54.410Z,97967.28
2023-11-21T18:14:44.265Z,97965.63
2023-11-21T18:17:34.460Z,97977.34
2023-11-21T18:20:23.408Z,97965.63
2023-11-21T18:23:13.271Z,97973.66
2023-11-21T18:26:02.115Z,97980.88
2023-11-21T18:28:51.015Z,97984.41
2023-11-21T18:31:42.577Z,97987.94
2023-11-21T18:34:32.803Z,97989.78
2023-11-21T18:37:21.628Z,97993.28
2023-11-21T18:40:12.000Z,97991.44
2023-11-21T18:43:00.839Z,98004.19
2023-11-21T18:45:50.172Z,98008.56
2023-11-21T18:48:39.628Z,98015.78
2023-11-21T18:51:29.716Z,98029.88
2023-11-21T18:54:18.593Z,98026.50
2023-11-21T18:57:07.377Z,98029.03
2023-11-21T18:59:56.215Z,98024.31
2023-11-21T19:02:45.246Z,98038.94
2023-11-21T19:05:35.394Z,98038.94
2023-11-21T19:08:25.639Z,98042.47
2023-11-21T19:11:14.453Z,98044.69
2023-11-21T19:14:03.618Z,98054.56
2023-11-21T19:16:52.492Z,98057.06
2023-11-21T19:19:41.293Z,98065.13
2023-11-21T19:22:30.322Z,98064.31
2023-11-21T19:25:20.962Z,98074.03
2023-11-21T19:28:09.841Z,98079.59
2023-11-21T19:31:00.005Z,98078.56
2023-11-21T19:33:49.203Z,98088.78
2023-11-21T19:36:42.456Z,98092.00
2023-11-21T19:39:31.408Z,98096.53
2023-11-21T19:42:21.864Z,98105.41
2023-11-21T19:45:13.205Z,98110.78
2023-11-21T19:48:02.144Z,98115.31
2023-11-21T19:50:51.132Z,98109.13
2023-11-21T19:53:40.036Z,98116.31
2023-11-21T19:56:28.860Z,98123.53
2023-11-21T19:59:21.045Z,98124.38
2023-11-21T20:02:10.050Z,98139.50
2023-11-21T20:04:59.285Z,98144.19
2023-11-21T20:07:48.827Z,98145.84
2023-11-21T20:10:39.396Z,98148.38
2023-11-21T20:13:28.172Z,98155.41
2023-11-21T20:16:19.861Z,98167.00
2023-11-21T20:19:09.433Z,98165.31
2023-11-21T20:21:58.497Z,98169.03
2023-11-21T20:24:48.360Z,98173.56
2023-11-21T20:27:37.096Z,98172.72
2023-11-21T20:30:28.958Z,98175.38
2023-11-21T20:33:19.312Z,98172.72
2023-11-21T20:36:08.907Z,98181.78
2023-11-21T20:38:57.663Z,98182.44
2023-11-21T20:41:46.517Z,98192.53
2023-11-21T20:44:35.400Z,98193.19
2023-11-21T20:47:24.278Z,98203.09
2023-11-21T20:50:14.903Z,98204.09
2023-11-21T20:53:05.652Z,98199.75
2023-11-21T20:55:54.699Z,98208.63
2023-11-21T20:58:43.960Z,98217.53
2023-11-21T21:01:32.996Z,98222.06
2023-11-21T21:04:22.174Z,98217.72
2023-11-21T21:07:12.455Z,98227.44
2023-11-21T21:10:01.420Z,98224.75
2023-11-21T21:12:51.292Z,98237.34
2023-11-21T21:15:40.727Z,98241.69
2023-11-21T21:18:29.959Z,98256.97
2023-11-21T21:21:18.747Z,98256.81
2023-11-21T21:24:10.351Z,98264.00
2023-11-21T21:26:59.032Z,98274.75
2023-11-21T21:29:47.866Z,98273.09
2023-11-21T21:32:36.687Z,98279.28
2023-11-21T21:35:29.783Z,98279.28
2023-11-21T21:38:18.766Z,98291.72
2023-11-21T21:41:11.360Z,98304.28
2023-11-21T21:44:00.389Z,98314.03
2023-11-21T21:46:49.395Z,98317.72
2023-11-21T21:49:38.853Z,98320.41
2023-11-21T21:52:36.860Z,98331.81
2023-11-21T21:55:25.793Z,98326.44
2023-11-21T21:58:15.917Z,98335.53
2023-11-21T22:01:05.250Z,98335.53
2023-11-21T22:03:54.078Z,98333.66
2023-11-21T22:06:43.072Z,98337.19
2023-11-21T22:09:34.179Z,98339.88
2023-11-21T22:12:23.123Z,98347.09
2023-11-21T22:15:13.705Z,98336.34
2023-11-21T22:18:02.500Z,98335.53
2023-11-21T22:20:51.895Z,98341.72
2023-11-21T22:23:40.717Z,98359.69
2023-11-21T22:26:29.522Z,98362.38
2023-11-21T22:29:18.398Z,98358.00
2023-11-21T22:32:09.082Z,98366.03
2023-11-21T22:34:57.858Z,98367.75
2023-11-21T22:37:46.700Z,98369.59
2023-11-21T22:40:35.419Z,98377.66
2023-11-21T22:43:24.187Z,98375.97
2023-11-21T22:46:13.712Z,98375.13
2023-11-21T22:49:05.151Z,98387.53
2023-11-21T22:51:53.963Z,98385.88
2023-11-21T22:54:42.709Z,98393.91
2023-11-21T22:57:32.483Z,98397.44
2023-11-21T23:00:22.416Z,98400.97
2023-11-21T23:03:11.417Z,98401.97
2023-11-21T23:06:01.572Z,98401.97
2023-11-21T23:08:50.548Z,98397.44
2023-11-21T23:11:39.275Z,98401.16
2023-11-21T23:14:28.351Z,98411.88
2023-11-21T23:17:18.746Z,98412.72
2023-11-21T23:20:10.879Z,98423.47
2023-11-21T23:23:01.226Z,98411.88
2023-11-21T23:25:49.895Z,98428.00
2023-11-21T23:28:38.756Z,98433.38
2023-11-21T23:31:27.985Z,98434.19
2023-11-21T23:34:16.762Z,98429.84
2023-11-21T23:37:06.217Z,98444.94
2023-11-21T23:39:56.367Z,98442.25
2023-11-21T23:42:45.584Z,98456.72
2023-11-21T23:45:34.729Z,98453.19
2023-11-21T23:48:23.732Z,98460.22
2023-11-21T23:51:12.472Z,98459.38
2023-11-21T23:54:01.266Z,98464.75
2023-11-21T23:56:52.264Z,98466.63
2023-11-21T23:59:41.031Z,98472.63
